N70CR MUHA-MUCU
Flight info
| Callsign | N70CR |
|---|---|
| Flight time | 0h 58m |
| Altitude | 33000 |
| Route | KAVUL6A KAVUL DCT AVEPI DCT APRIK DCT UKULO DCT PUTIM DCT MALTA DCT UCU37 DCT UCU35 DCT DARPO |
| Aircraft | C700/M-SBDGHM1RWXY/LB2 |
Departure
| Time | 2026-04-22 01:40 |
|---|---|
| Airport | José Martí International Airport (MUHA) |
Arrival
| Time | 2026-04-22 02:39 |
|---|---|
| Airport | Antonio Maceo International Airport (MUCU) |
| Time | Latitude | Longitude | Altitude | Speed | Heading |
|---|---|---|---|---|---|
| 2026-04-22 01:38 | 22.98947 | -82.41179 | 213 ft | 9 kts | 53° |
| 2026-04-22 01:38 | 22.98989 | -82.41110 | 212 ft | 12 kts | 68° |
| 2026-04-22 01:39 | 22.98944 | -82.41076 | 213 ft | 12 kts | 189° |
| 2026-04-22 01:39 | 22.98852 | -82.41089 | 210 ft | 15 kts | 187° |
| 2026-04-22 01:39 | 22.98811 | -82.41062 | 213 ft | 8 kts | 57° |
| 2026-04-22 01:39 | 22.98814 | -82.41057 | 213 ft | 0 kts | 52° |
| 2026-04-22 01:40 | 22.98904 | -82.40921 | 212 ft | 65 kts | 56° |
| 2026-04-22 01:40 | 22.99347 | -82.40222 | 326 ft | 152 kts | 57° |
| 2026-04-22 01:40 | 23.00044 | -82.39154 | 1078 ft | 185 kts | 56° |
| 2026-04-22 01:41 | 23.00863 | -82.38007 | 1540 ft | 187 kts | 54° |
| 2026-04-22 01:41 | 23.01590 | -82.36872 | 1893 ft | 184 kts | 59° |
| 2026-04-22 01:41 | 23.02226 | -82.35696 | 2321 ft | 186 kts | 75° |
| 2026-04-22 01:41 | 23.02315 | -82.34310 | 2642 ft | 188 kts | 85° |
| 2026-04-22 01:42 | 23.02518 | -82.32774 | 3339 ft | 223 kts | 78° |
| 2026-04-22 01:42 | 23.02867 | -82.31045 | 4563 ft | 246 kts | 78° |
| 2026-04-22 01:42 | 23.03165 | -82.29205 | 6231 ft | 247 kts | 83° |
| 2026-04-22 01:42 | 23.03244 | -82.27338 | 7873 ft | 260 kts | 90° |
| 2026-04-22 01:43 | 23.03294 | -82.25301 | 8681 ft | 278 kts | 84° |
| 2026-04-22 01:43 | 23.03708 | -82.23231 | 9539 ft | 284 kts | 73° |
| 2026-04-22 01:43 | 23.04248 | -82.21140 | 10452 ft | 300 kts | 76° |
| 2026-04-22 01:43 | 23.04627 | -82.18822 | 11338 ft | 320 kts | 82° |
| 2026-04-22 01:44 | 23.04891 | -82.16362 | 12247 ft | 335 kts | 82° |
| 2026-04-22 01:44 | 23.05128 | -82.13816 | 13164 ft | 345 kts | 88° |
| 2026-04-22 01:44 | 23.04839 | -82.11212 | 14086 ft | 352 kts | 102° |
| 2026-04-22 01:44 | 23.04000 | -82.08688 | 14918 ft | 358 kts | 116° |
| 2026-04-22 01:45 | 23.02697 | -82.06364 | 15778 ft | 363 kts | 123° |
| 2026-04-22 01:45 | 23.01319 | -82.04044 | 16663 ft | 368 kts | 123° |
| 2026-04-22 01:45 | 22.99920 | -82.01688 | 17562 ft | 374 kts | 123° |
| 2026-04-22 01:45 | 22.98495 | -81.99296 | 18494 ft | 381 kts | 123° |
| 2026-04-22 01:46 | 22.97046 | -81.96899 | 19297 ft | 388 kts | 126° |
| 2026-04-22 01:46 | 22.95127 | -81.94822 | 20113 ft | 394 kts | 137° |
| 2026-04-22 01:46 | 22.93472 | -81.92412 | 20957 ft | 403 kts | 120° |
| 2026-04-22 01:46 | 22.92199 | -81.89664 | 21839 ft | 412 kts | 115° |
| 2026-04-22 01:47 | 22.90934 | -81.86843 | 22756 ft | 420 kts | 117° |
| 2026-04-22 01:47 | 22.89417 | -81.84095 | 23690 ft | 428 kts | 124° |
| 2026-04-22 01:47 | 22.87685 | -81.81442 | 24490 ft | 434 kts | 127° |
| 2026-04-22 01:47 | 22.85937 | -81.78748 | 25305 ft | 440 kts | 124° |
| 2026-04-22 01:48 | 22.84329 | -81.75949 | 26130 ft | 446 kts | 122° |
| 2026-04-22 01:48 | 22.82701 | -81.73063 | 26992 ft | 451 kts | 123° |
| 2026-04-22 01:48 | 22.80970 | -81.70207 | 27885 ft | 455 kts | 125° |
| 2026-04-22 01:48 | 22.79209 | -81.67349 | 28799 ft | 457 kts | 124° |
| 2026-04-22 01:49 | 22.77487 | -81.64449 | 29751 ft | 459 kts | 124° |
| 2026-04-22 01:49 | 22.75769 | -81.61518 | 30640 ft | 462 kts | 124° |
| 2026-04-22 01:49 | 22.74004 | -81.58572 | 31124 ft | 473 kts | 125° |
| 2026-04-22 01:49 | 22.72189 | -81.55576 | 31145 ft | 487 kts | 125° |
| 2026-04-22 01:50 | 22.68482 | -81.49361 | 31148 ft | 505 kts | 125° |
| 2026-04-22 01:50 | 22.66535 | -81.46116 | 31158 ft | 522 kts | 125° |
| 2026-04-22 01:50 | 22.64542 | -81.42802 | 31157 ft | 527 kts | 125° |
| 2026-04-22 01:51 | 22.60528 | -81.36105 | 31156 ft | 539 kts | 125° |
| 2026-04-22 01:51 | 22.56376 | -81.29204 | 31153 ft | 551 kts | 125° |
| 2026-04-22 01:52 | 22.52188 | -81.22239 | 31153 ft | 552 kts | 125° |
| 2026-04-22 01:52 | 22.48019 | -81.15324 | 31150 ft | 553 kts | 125° |
| 2026-04-22 01:53 | 22.43817 | -81.08360 | 31148 ft | 553 kts | 125° |
| 2026-04-22 01:53 | 22.39612 | -81.01401 | 31151 ft | 553 kts | 125° |
| 2026-04-22 01:54 | 22.35406 | -80.94449 | 31149 ft | 553 kts | 125° |
| 2026-04-22 01:54 | 22.31226 | -80.87548 | 31148 ft | 553 kts | 125° |
| 2026-04-22 01:55 | 22.27013 | -80.80605 | 31146 ft | 553 kts | 125° |
| 2026-04-22 01:55 | 22.22794 | -80.73657 | 31136 ft | 553 kts | 125° |
| 2026-04-22 01:56 | 22.18569 | -80.66711 | 31127 ft | 553 kts | 125° |
| 2026-04-22 01:56 | 22.14343 | -80.59770 | 31115 ft | 553 kts | 125° |
| 2026-04-22 01:57 | 22.10141 | -80.52879 | 31108 ft | 554 kts | 125° |
| 2026-04-22 01:57 | 22.05902 | -80.45937 | 31105 ft | 554 kts | 126° |
| 2026-04-22 01:58 | 22.01662 | -80.39001 | 31109 ft | 554 kts | 126° |
| 2026-04-22 01:58 | 21.97413 | -80.32060 | 31111 ft | 555 kts | 126° |
| 2026-04-22 01:59 | 21.93192 | -80.25173 | 31120 ft | 554 kts | 126° |
| 2026-04-22 01:59 | 21.88947 | -80.18254 | 31325 ft | 553 kts | 126° |
| 2026-04-22 02:00 | 21.86815 | -80.14786 | 31607 ft | 557 kts | 126° |
| 2026-04-22 02:00 | 21.84677 | -80.11309 | 31902 ft | 558 kts | 126° |
| 2026-04-22 02:00 | 21.82531 | -80.07818 | 32193 ft | 559 kts | 126° |
| 2026-04-22 02:00 | 21.80386 | -80.04330 | 32487 ft | 559 kts | 126° |
| 2026-04-22 02:01 | 21.78236 | -80.00840 | 32779 ft | 559 kts | 127° |
| 2026-04-22 02:01 | 21.76118 | -79.97405 | 33069 ft | 556 kts | 127° |
| 2026-04-22 02:01 | 21.71857 | -79.90493 | 33119 ft | 549 kts | 127° |
| 2026-04-22 02:02 | 21.67808 | -79.83524 | 33117 ft | 552 kts | 119° |
| 2026-04-22 02:02 | 21.64607 | -79.76011 | 33120 ft | 552 kts | 117° |
| 2026-04-22 02:03 | 21.61392 | -79.68511 | 33115 ft | 553 kts | 117° |
| 2026-04-22 02:03 | 21.58215 | -79.61065 | 33118 ft | 552 kts | 117° |
| 2026-04-22 02:04 | 21.53397 | -79.49824 | 33113 ft | 552 kts | 117° |
| 2026-04-22 02:05 | 21.50183 | -79.42338 | 33112 ft | 552 kts | 117° |
| 2026-04-22 02:05 | 21.46967 | -79.34856 | 33114 ft | 552 kts | 117° |
| 2026-04-22 02:06 | 21.43768 | -79.27425 | 33112 ft | 552 kts | 117° |
| 2026-04-22 02:06 | 21.40547 | -79.19954 | 33115 ft | 552 kts | 117° |
| 2026-04-22 02:07 | 21.37316 | -79.12470 | 33111 ft | 552 kts | 117° |
| 2026-04-22 02:07 | 21.34085 | -79.04996 | 33107 ft | 552 kts | 117° |
| 2026-04-22 02:08 | 21.30874 | -78.97584 | 33106 ft | 551 kts | 117° |
| 2026-04-22 02:08 | 21.27641 | -78.90128 | 33106 ft | 551 kts | 117° |
| 2026-04-22 02:09 | 21.24409 | -78.82686 | 33102 ft | 551 kts | 117° |
| 2026-04-22 02:09 | 21.21174 | -78.75247 | 33104 ft | 550 kts | 117° |
| 2026-04-22 02:10 | 21.17959 | -78.67866 | 33102 ft | 550 kts | 117° |
| 2026-04-22 02:10 | 21.14761 | -78.60415 | 33104 ft | 551 kts | 116° |
| 2026-04-22 02:11 | 21.11693 | -78.52903 | 33101 ft | 551 kts | 116° |
| 2026-04-22 02:11 | 21.08603 | -78.45396 | 33099 ft | 551 kts | 116° |
| 2026-04-22 02:12 | 21.05541 | -78.37925 | 33100 ft | 551 kts | 116° |
| 2026-04-22 02:12 | 21.02448 | -78.30420 | 33101 ft | 551 kts | 116° |
| 2026-04-22 02:13 | 20.99356 | -78.22911 | 33099 ft | 551 kts | 116° |
| 2026-04-22 02:13 | 20.96259 | -78.15412 | 33101 ft | 551 kts | 116° |
| 2026-04-22 02:14 | 20.93161 | -78.07910 | 33096 ft | 552 kts | 116° |
| 2026-04-22 02:14 | 20.90073 | -78.00453 | 33098 ft | 552 kts | 116° |
| 2026-04-22 02:15 | 20.86965 | -77.92951 | 33099 ft | 552 kts | 116° |
| 2026-04-22 02:15 | 20.83975 | -77.85750 | 33099 ft | 552 kts | 116° |
| 2026-04-22 02:16 | 20.80862 | -77.78260 | 33093 ft | 551 kts | 116° |
| 2026-04-22 02:16 | 20.77766 | -77.70824 | 33093 ft | 552 kts | 116° |
| 2026-04-22 02:17 | 20.74644 | -77.63334 | 33093 ft | 552 kts | 116° |
| 2026-04-22 02:17 | 20.71436 | -77.55892 | 33092 ft | 550 kts | 122° |
| 2026-04-22 02:18 | 20.66899 | -77.49431 | 33094 ft | 540 kts | 139° |
| 2026-04-22 02:18 | 20.61645 | -77.43761 | 33092 ft | 541 kts | 139° |
| 2026-04-22 02:19 | 20.56358 | -77.38038 | 33089 ft | 541 kts | 139° |
| 2026-04-22 02:19 | 20.51065 | -77.32330 | 33085 ft | 541 kts | 139° |
| 2026-04-22 02:20 | 20.45775 | -77.26621 | 33084 ft | 541 kts | 139° |
| 2026-04-22 02:20 | 20.40514 | -77.20956 | 33082 ft | 540 kts | 139° |
| 2026-04-22 02:20 | 20.37884 | -77.18123 | 32447 ft | 535 kts | 139° |
| 2026-04-22 02:21 | 20.35294 | -77.15332 | 31707 ft | 524 kts | 139° |
| 2026-04-22 02:21 | 20.32755 | -77.12601 | 30999 ft | 515 kts | 139° |
| 2026-04-22 02:21 | 20.30362 | -77.09759 | 30299 ft | 517 kts | 130° |
| 2026-04-22 02:21 | 20.28356 | -77.06560 | 29515 ft | 520 kts | 123° |
| 2026-04-22 02:22 | 20.26506 | -77.03265 | 28728 ft | 515 kts | 123° |
| 2026-04-22 02:22 | 20.24688 | -77.00047 | 27966 ft | 498 kts | 123° |
| 2026-04-22 02:22 | 20.22925 | -76.96957 | 27222 ft | 480 kts | 124° |
| 2026-04-22 02:22 | 20.21446 | -76.93885 | 26489 ft | 467 kts | 112° |
| 2026-04-22 02:23 | 20.20460 | -76.90628 | 25776 ft | 459 kts | 105° |
| 2026-04-22 02:23 | 20.19695 | -76.87348 | 25088 ft | 454 kts | 103° |
| 2026-04-22 02:23 | 20.19013 | -76.84083 | 24411 ft | 450 kts | 102° |
| 2026-04-22 02:23 | 20.18365 | -76.80840 | 23755 ft | 445 kts | 102° |
| 2026-04-22 02:24 | 20.17737 | -76.77633 | 22989 ft | 440 kts | 101° |
| 2026-04-22 02:24 | 20.17120 | -76.74469 | 22230 ft | 433 kts | 101° |
| 2026-04-22 02:24 | 20.16516 | -76.71360 | 21483 ft | 425 kts | 101° |
| 2026-04-22 02:24 | 20.15920 | -76.68314 | 20759 ft | 417 kts | 101° |
| 2026-04-22 02:25 | 20.15342 | -76.65363 | 20058 ft | 408 kts | 101° |
| 2026-04-22 02:25 | 20.14769 | -76.62453 | 19366 ft | 397 kts | 101° |
| 2026-04-22 02:25 | 20.14208 | -76.59616 | 18688 ft | 387 kts | 101° |
| 2026-04-22 02:25 | 20.13659 | -76.56846 | 17962 ft | 378 kts | 101° |
| 2026-04-22 02:26 | 20.13119 | -76.54139 | 17202 ft | 371 kts | 101° |
| 2026-04-22 02:26 | 20.12587 | -76.51478 | 16449 ft | 363 kts | 101° |
| 2026-04-22 02:26 | 20.12070 | -76.48915 | 15691 ft | 341 kts | 101° |
| 2026-04-22 02:26 | 20.11582 | -76.46517 | 14868 ft | 325 kts | 101° |
| 2026-04-22 02:27 | 20.11111 | -76.44224 | 14073 ft | 319 kts | 101° |
| 2026-04-22 02:27 | 20.10636 | -76.41936 | 13202 ft | 315 kts | 101° |
| 2026-04-22 02:27 | 20.10159 | -76.39677 | 12328 ft | 310 kts | 103° |
| 2026-04-22 02:27 | 20.09197 | -76.37657 | 11459 ft | 308 kts | 131° |
| 2026-04-22 02:28 | 20.07450 | -76.36428 | 10625 ft | 299 kts | 163° |
| 2026-04-22 02:28 | 20.05451 | -76.36336 | 9957 ft | 285 kts | 194° |
| 2026-04-22 02:28 | 20.03667 | -76.37198 | 9239 ft | 282 kts | 210° |
| 2026-04-22 02:28 | 20.01855 | -76.37980 | 8536 ft | 284 kts | 191° |
| 2026-04-22 02:29 | 19.99893 | -76.38068 | 7849 ft | 282 kts | 173° |
| 2026-04-22 02:29 | 19.98041 | -76.37553 | 7200 ft | 277 kts | 154° |
| 2026-04-22 02:29 | 19.96455 | -76.36527 | 7090 ft | 262 kts | 139° |
| 2026-04-22 02:29 | 19.95202 | -76.35120 | 7084 ft | 261 kts | 123° |
| 2026-04-22 02:30 | 19.94345 | -76.33430 | 6803 ft | 259 kts | 108° |
| 2026-04-22 02:30 | 19.93944 | -76.31603 | 6472 ft | 251 kts | 94° |
| 2026-04-22 02:30 | 19.93966 | -76.29767 | 6124 ft | 247 kts | 82° |
| 2026-04-22 02:30 | 19.94126 | -76.27953 | 5765 ft | 246 kts | 83° |
| 2026-04-22 02:31 | 19.94254 | -76.26168 | 5376 ft | 236 kts | 83° |
| 2026-04-22 02:31 | 19.94392 | -76.24455 | 4987 ft | 230 kts | 83° |
| 2026-04-22 02:31 | 19.94532 | -76.22800 | 4613 ft | 226 kts | 83° |
| 2026-04-22 02:31 | 19.94663 | -76.21192 | 4579 ft | 212 kts | 83° |
| 2026-04-22 02:32 | 19.94789 | -76.19650 | 4581 ft | 208 kts | 83° |
| 2026-04-22 02:32 | 19.94918 | -76.18122 | 4578 ft | 207 kts | 83° |
| 2026-04-22 02:32 | 19.95151 | -76.16622 | 4575 ft | 205 kts | 79° |
| 2026-04-22 02:32 | 19.95290 | -76.15107 | 4577 ft | 207 kts | 84° |
| 2026-04-22 02:33 | 19.95386 | -76.13574 | 4575 ft | 207 kts | 84° |
| 2026-04-22 02:33 | 19.95479 | -76.12052 | 4572 ft | 207 kts | 84° |
| 2026-04-22 02:33 | 19.95573 | -76.10541 | 4577 ft | 207 kts | 84° |
| 2026-04-22 02:33 | 19.95663 | -76.09016 | 4575 ft | 207 kts | 84° |
| 2026-04-22 02:34 | 19.95762 | -76.07481 | 4576 ft | 208 kts | 84° |
| 2026-04-22 02:34 | 19.95839 | -76.05949 | 4527 ft | 209 kts | 85° |
| 2026-04-22 02:34 | 19.95913 | -76.04403 | 4121 ft | 207 kts | 84° |
| 2026-04-22 02:34 | 19.95996 | -76.02883 | 3631 ft | 204 kts | 84° |
| 2026-04-22 02:35 | 19.96078 | -76.01371 | 3150 ft | 206 kts | 84° |
| 2026-04-22 02:35 | 19.96152 | -75.99928 | 3095 ft | 182 kts | 84° |
| 2026-04-22 02:35 | 19.96230 | -75.98606 | 3076 ft | 182 kts | 82° |
| 2026-04-22 02:35 | 19.96319 | -75.97272 | 3040 ft | 179 kts | 83° |
| 2026-04-22 02:36 | 19.96404 | -75.95931 | 2713 ft | 181 kts | 83° |
| 2026-04-22 02:36 | 19.96465 | -75.94631 | 2345 ft | 173 kts | 83° |
| 2026-04-22 02:36 | 19.96557 | -75.93338 | 1928 ft | 176 kts | 83° |
| 2026-04-22 02:36 | 19.96620 | -75.92037 | 1496 ft | 176 kts | 85° |
| 2026-04-22 02:37 | 19.96703 | -75.90763 | 1125 ft | 168 kts | 80° |
| 2026-04-22 02:37 | 19.96902 | -75.89637 | 1761 ft | 134 kts | 78° |
| 2026-04-22 02:37 | 19.96915 | -75.88610 | 1702 ft | 135 kts | 84° |
| 2026-04-22 02:37 | 19.96927 | -75.87643 | 1194 ft | 130 kts | 83° |
| 2026-04-22 02:38 | 19.96973 | -75.86722 | 783 ft | 127 kts | 83° |
| 2026-04-22 02:38 | 19.96969 | -75.85793 | 367 ft | 119 kts | 87° |
| 2026-04-22 02:38 | 19.96971 | -75.84959 | 214 ft | 103 kts | 86° |
| 2026-04-22 02:38 | 19.96992 | -75.84276 | 214 ft | 78 kts | 84° |
| 2026-04-22 02:39 | 19.96994 | -75.84057 | 218 ft | 11 kts | 67° |
| 2026-04-22 02:39 | 19.97060 | -75.84029 | 218 ft | 2 kts | 358° |
| 2026-04-22 02:39 | 19.97075 | -75.84031 | 217 ft | 0 kts | 354° |
| 2026-04-22 02:40 | 19.97076 | -75.84031 | 217 ft | 0 kts | 348° |
| 2026-04-22 02:40 | 19.97081 | -75.84038 | 217 ft | 4 kts | 313° |
| 2026-04-22 02:40 | 19.97074 | -75.84060 | 217 ft | 5 kts | 217° |
| 2026-04-22 02:41 | 19.97056 | -75.84099 | 217 ft | 6 kts | 259° |
| 2026-04-22 02:41 | 19.97044 | -75.84120 | 217 ft | 2 kts | 126° |
| 2026-04-22 02:41 | 19.97052 | -75.84099 | 217 ft | 5 kts | 73° |
| 2026-04-22 02:41 | 19.97054 | -75.84050 | 218 ft | 8 kts | 89° |
| 2026-04-22 02:42 | 19.97094 | -75.84016 | 217 ft | 12 kts | 349° |
| 2026-04-22 02:42 | 19.97159 | -75.83955 | 216 ft | 11 kts | 75° |
| 2026-04-22 02:42 | 19.97161 | -75.83903 | 216 ft | 1 kts | 109° |
| 2026-04-22 02:42 | 19.97154 | -75.83905 | 216 ft | 1 kts | 213° |
| 2026-04-22 02:43 | 19.97157 | -75.83917 | 216 ft | 2 kts | 318° |
| 2026-04-22 02:43 | 19.97177 | -75.83919 | 216 ft | 0 kts | 356° |
| 2026-04-22 02:43 | 19.97178 | -75.83918 | 216 ft | 0 kts | 21° |
| 2026-04-22 02:43 | 19.97178 | -75.83888 | 216 ft | 0 kts | 96° |
| 2026-04-22 02:44 | 19.97168 | -75.83854 | 216 ft | 10 kts | 112° |
| 2026-04-22 02:44 | 19.97165 | -75.83817 | 216 ft | 5 kts | 88° |
| 2026-04-22 02:44 | 19.97166 | -75.83757 | 216 ft | 0 kts | 90° |
| 2026-04-22 02:44 | 19.97162 | -75.83728 | 216 ft | 12 kts | 103° |
| 2026-04-22 02:45 | 19.97176 | -75.83665 | 215 ft | 10 kts | 23° |
| 2026-04-22 02:45 | 19.97198 | -75.83722 | 215 ft | 7 kts | 267° |
| 2026-04-22 02:45 | 19.97197 | -75.83736 | 215 ft | 0 kts | 268° |